createdAt,value
2017-11-23T00:01:07.258Z,99687.64
2017-11-23T00:03:33.059Z,99673.09
2017-11-23T00:05:59.233Z,99671.80
2017-11-23T00:08:25.219Z,99666.00
2017-11-23T00:10:51.331Z,99669.80
2017-11-23T00:13:17.129Z,99679.95
2017-11-23T00:15:43.292Z,99663.20
2017-11-23T00:18:09.137Z,99663.60
2017-11-23T00:20:34.934Z,99673.05
2017-11-23T00:23:00.762Z,99672.00
2017-11-23T00:25:26.544Z,99672.17
2017-11-23T00:27:52.343Z,99670.86
2017-11-23T00:30:19.041Z,99676.30
2017-11-23T00:32:44.828Z,99678.86
2017-11-23T00:35:10.614Z,99681.83
2017-11-23T00:37:36.701Z,99675.94
2017-11-23T00:40:02.520Z,99672.80
2017-11-23T00:42:28.342Z,99684.39
2017-11-23T00:44:54.180Z,99688.77
2017-11-23T00:47:19.982Z,99690.02
2017-11-23T00:49:45.772Z,99683.67
2017-11-23T00:52:11.556Z,99676.75
2017-11-23T00:54:37.338Z,99680.84
2017-11-23T00:57:03.132Z,99673.07
2017-11-23T00:59:28.944Z,99677.81
2017-11-23T01:01:54.732Z,99681.99
2017-11-23T01:04:20.557Z,99673.94
2017-11-23T01:06:46.334Z,99666.72
2017-11-23T01:09:12.119Z,99664.68
2017-11-23T01:11:37.935Z,99666.23
2017-11-23T01:14:04.064Z,99666.36
2017-11-23T01:16:29.852Z,99665.87
2017-11-23T01:18:55.620Z,99671.14
2017-11-23T01:21:21.408Z,99671.59
2017-11-23T01:23:47.201Z,99674.46
2017-11-23T01:26:12.988Z,99671.80
2017-11-23T01:28:39.083Z,99664.23
2017-11-23T01:31:04.867Z,99663.07
2017-11-23T01:33:30.651Z,99655.47
2017-11-23T01:35:56.456Z,99641.14
2017-11-23T01:38:22.245Z,99644.14
2017-11-23T01:40:48.029Z,99660.23
2017-11-23T01:43:13.880Z,99662.90
2017-11-23T01:45:39.704Z,99665.80
2017-11-23T01:48:05.488Z,99665.83
2017-11-23T01:50:31.541Z,99668.73
2017-11-23T01:52:57.325Z,99659.41
2017-11-23T01:55:23.142Z,99652.70
2017-11-23T01:57:49.006Z,99655.23
2017-11-23T02:00:15.369Z,99654.41
2017-11-23T02:02:41.166Z,99652.20
2017-11-23T02:05:06.981Z,99651.48
2017-11-23T02:07:32.785Z,99646.34
2017-11-23T02:09:58.622Z,99638.73
2017-11-23T02:12:24.490Z,99635.74
2017-11-23T02:14:50.304Z,99627.25
2017-11-23T02:17:16.125Z,99622.34
2017-11-23T02:19:41.954Z,99617.56
2017-11-23T02:22:07.791Z,99619.47
2017-11-23T02:24:33.632Z,99630.27
2017-11-23T02:26:59.488Z,99630.30
2017-11-23T02:29:25.343Z,99633.19
2017-11-23T02:31:51.172Z,99628.22
2017-11-23T02:34:17.185Z,99624.27
2017-11-23T02:36:43.030Z,99618.57
2017-11-23T02:39:08.864Z,99616.73
2017-11-23T02:41:34.696Z,99619.85
2017-11-23T02:44:00.503Z,99620.71
2017-11-23T02:46:26.318Z,99618.17
2017-11-23T02:48:52.138Z,99619.48
2017-11-23T02:51:17.961Z,99620.61
2017-11-23T02:53:43.774Z,99625.11
2017-11-23T02:56:09.606Z,99632.53
2017-11-23T02:58:35.419Z,99625.54
2017-11-23T03:01:01.241Z,99626.25
2017-11-23T03:03:27.092Z,99623.91
2017-11-23T03:05:52.888Z,99634.41
2017-11-23T03:08:18.684Z,99630.23
2017-11-23T03:10:44.525Z,99624.30
2017-11-23T03:13:10.346Z,99624.12
2017-11-23T03:15:36.130Z,99624.05
2017-11-23T03:18:01.969Z,99621.41
2017-11-23T03:20:27.768Z,99620.29
2017-11-23T03:22:53.573Z,99622.52
2017-11-23T03:25:19.411Z,99606.64
2017-11-23T03:27:45.215Z,99607.03
2017-11-23T03:30:11.024Z,99608.84
2017-11-23T03:32:36.849Z,99614.00
2017-11-23T03:35:02.644Z,99614.19
2017-11-23T03:37:28.468Z,99606.31
2017-11-23T03:39:54.287Z,99606.83
2017-11-23T03:42:20.121Z,99590.77
2017-11-23T03:44:45.968Z,99587.26
2017-11-23T03:47:11.792Z,99574.39
2017-11-23T03:49:37.592Z,99579.98
2017-11-23T03:52:03.397Z,99574.48
2017-11-23T03:54:29.257Z,99575.38
2017-11-23T03:56:55.061Z,99566.42
2017-11-23T03:59:20.854Z,99557.05
2017-11-23T04:01:46.665Z,99557.33
2017-11-23T04:04:12.440Z,99549.53
2017-11-23T04:06:38.244Z,99543.61
2017-11-23T04:09:04.424Z,99549.56
2017-11-23T04:11:30.227Z,99546.25
2017-11-23T04:13:56.041Z,99544.94
2017-11-23T04:16:22.045Z,99542.54
2017-11-23T04:18:47.841Z,99532.64
2017-11-23T04:21:13.633Z,99526.17
2017-11-23T04:23:39.641Z,99526.38
2017-11-23T04:26:05.493Z,99518.35
2017-11-23T04:28:31.317Z,99529.15
2017-11-23T04:30:57.162Z,99529.56
2017-11-23T04:33:22.974Z,99525.88
2017-11-23T04:35:48.796Z,99522.53
2017-11-23T04:38:15.161Z,99519.09
2017-11-23T04:40:40.980Z,99520.17
2017-11-23T04:43:06.805Z,99521.82
2017-11-23T04:45:32.617Z,99520.89
2017-11-23T04:47:58.418Z,99520.75
2017-11-23T04:50:24.255Z,99517.70
2017-11-23T04:52:50.057Z,99505.54
2017-11-23T04:55:15.977Z,99517.05
2017-11-23T04:57:41.783Z,99505.94
2017-11-23T05:00:07.566Z,99503.44
2017-11-23T05:02:33.398Z,99504.02
2017-11-23T05:04:59.200Z,99504.67
2017-11-23T05:07:25.010Z,99505.78
2017-11-23T05:09:50.824Z,99502.05
2017-11-23T05:12:16.628Z,99502.48
2017-11-23T05:14:42.454Z,99507.46
2017-11-23T05:17:08.256Z,99511.47
2017-11-23T05:19:34.059Z,99511.94
2017-11-23T05:22:00.087Z,99510.01
2017-11-23T05:24:25.880Z,99498.16
2017-11-23T05:26:51.684Z,99499.62
2017-11-23T05:29:17.508Z,99503.80
2017-11-23T05:31:43.305Z,99498.48
2017-11-23T05:34:09.105Z,99487.27
2017-11-23T05:36:34.937Z,99486.96
2017-11-23T05:39:00.826Z,99482.63
2017-11-23T05:41:26.699Z,99479.15
2017-11-23T05:43:52.514Z,99463.16
2017-11-23T05:46:18.321Z,99471.19
2017-11-23T05:48:44.143Z,99477.77
2017-11-23T05:51:09.950Z,99483.14
2017-11-23T05:53:35.748Z,99484.55
2017-11-23T05:56:01.551Z,99481.41
2017-11-23T05:58:27.338Z,99477.34
2017-11-23T06:00:53.194Z,99473.50
2017-11-23T06:03:19.046Z,99465.41
2017-11-23T06:05:44.867Z,99465.96
2017-11-23T06:08:10.681Z,99473.08
2017-11-23T06:10:36.513Z,99469.77
2017-11-23T06:13:02.307Z,99478.27
2017-11-23T06:15:28.108Z,99488.27
2017-11-23T06:17:54.120Z,99486.38
2017-11-23T06:20:19.942Z,99487.84
2017-11-23T06:22:45.722Z,99492.05
2017-11-23T06:25:11.540Z,99496.39
2017-11-23T06:27:37.333Z,99495.47
2017-11-23T06:30:03.149Z,99500.91
2017-11-23T06:32:29.237Z,99507.83
2017-11-23T06:34:55.025Z,99507.77
2017-11-23T06:37:20.812Z,99508.29
2017-11-23T06:39:46.649Z,99503.19
2017-11-23T06:42:12.438Z,99497.73
2017-11-23T06:44:38.220Z,99499.05
2017-11-23T06:47:04.009Z,99503.74
2017-11-23T06:49:29.830Z,99496.97
2017-11-23T06:54:28.345Z,99483.38
2017-11-23T06:56:54.148Z,99488.80
2017-11-23T06:59:20.201Z,99489.30
2017-11-23T07:01:45.985Z,99491.64
2017-11-23T07:04:11.777Z,99483.13
2017-11-23T07:06:37.603Z,99480.64
2017-11-23T07:09:03.438Z,99492.55
2017-11-23T07:11:29.285Z,99486.46
2017-11-23T07:13:55.094Z,99492.19
2017-11-23T07:16:20.893Z,99481.13
2017-11-23T07:18:47.065Z,99479.04
2017-11-23T07:21:12.881Z,99470.69
2017-11-23T07:23:38.673Z,99475.01
2017-11-23T07:26:04.816Z,99477.66
2017-11-23T07:28:30.642Z,99470.95
2017-11-23T07:30:56.427Z,99480.72
2017-11-23T07:33:23.042Z,99472.26
2017-11-23T07:35:48.841Z,99471.62
2017-11-23T07:38:14.660Z,99464.25
2017-11-23T07:40:40.442Z,99451.91
2017-11-23T07:43:06.229Z,99445.75
2017-11-23T07:45:32.046Z,99446.53
2017-11-23T07:47:57.854Z,99445.89
2017-11-23T07:50:23.684Z,99447.70
2017-11-23T07:52:49.485Z,99448.80
2017-11-23T07:55:15.278Z,99450.92
2017-11-23T07:57:41.194Z,99437.14
2017-11-23T08:00:07.014Z,99430.59
2017-11-23T08:02:32.817Z,99426.56
2017-11-23T08:04:58.658Z,99422.85
2017-11-23T08:07:24.525Z,99426.77
2017-11-23T08:09:50.321Z,99427.49
2017-11-23T08:12:16.491Z,99417.05
2017-11-23T08:14:42.323Z,99417.03
2017-11-23T08:17:08.153Z,99402.52
2017-11-23T08:19:34.790Z,99421.77
2017-11-23T08:22:00.733Z,99432.04
2017-11-23T08:24:26.545Z,99444.48
2017-11-23T08:26:52.333Z,99432.63
2017-11-23T08:29:18.145Z,99447.55
2017-11-23T08:31:43.962Z,99443.91
2017-11-23T08:34:09.754Z,99434.72
2017-11-23T08:36:35.544Z,99435.47
2017-11-23T08:39:01.362Z,99436.30
2017-11-23T08:41:27.178Z,99437.63
2017-11-23T08:43:52.970Z,99425.70
2017-11-23T08:46:18.797Z,99426.66
2017-11-23T08:48:44.609Z,99403.38
2017-11-23T08:51:10.405Z,99411.63
2017-11-23T08:53:36.530Z,99418.41
2017-11-23T08:56:02.337Z,99424.96
2017-11-23T08:58:28.125Z,99405.50
2017-11-23T09:00:54.191Z,99411.63
2017-11-23T09:03:19.973Z,99415.92
2017-11-23T09:05:45.834Z,99413.97
2017-11-23T09:08:12.242Z,99404.07
2017-11-23T09:10:38.569Z,99401.36
2017-11-23T09:13:08.459Z,99387.58
2017-11-23T09:15:34.728Z,99401.36
2017-11-23T09:18:00.717Z,99393.16
2017-11-23T09:20:27.273Z,99402.08
2017-11-23T09:22:53.856Z,99391.61
2017-11-23T09:25:19.835Z,99385.31
2017-11-23T09:27:45.702Z,99372.02
2017-11-23T09:30:11.817Z,99374.25
2017-11-23T09:32:37.630Z,99396.52
2017-11-23T09:35:03.620Z,99395.44
2017-11-23T09:37:29.451Z,99401.78
2017-11-23T09:39:55.272Z,99379.44
2017-11-23T09:42:21.288Z,99399.27
2017-11-23T09:44:47.103Z,99394.50
2017-11-23T09:47:12.938Z,99398.98
2017-11-23T09:49:38.986Z,99386.05
2017-11-23T09:52:04.833Z,99380.67
2017-11-23T09:54:30.635Z,99390.14
2017-11-23T09:56:56.441Z,99390.86
2017-11-23T09:59:22.244Z,99389.17
2017-11-23T10:01:48.044Z,99381.02
2017-11-23T10:04:14.063Z,99382.06
2017-11-23T10:06:40.737Z,99388.77
2017-11-23T10:09:06.538Z,99392.59
2017-11-23T10:11:32.338Z,99386.20
2017-11-23T10:13:58.167Z,99383.72
2017-11-23T10:16:23.968Z,99376.72
2017-11-23T10:18:49.772Z,99373.72
2017-11-23T10:21:15.914Z,99373.09
2017-11-23T10:23:41.730Z,99373.42
2017-11-23T10:26:07.521Z,99360.72
2017-11-23T10:28:34.267Z,99371.34
2017-11-23T10:31:00.074Z,99361.28
2017-11-23T10:33:25.879Z,99361.59
2017-11-23T10:35:51.680Z,99353.17
2017-11-23T10:38:17.481Z,99353.50
2017-11-23T10:40:43.282Z,99366.06
2017-11-23T10:43:09.124Z,99351.22
2017-11-23T10:45:34.921Z,99353.35
2017-11-23T10:48:00.725Z,99371.45
2017-11-23T10:50:27.495Z,99353.55
2017-11-23T10:52:53.315Z,99358.43
2017-11-23T10:55:19.139Z,99345.81
2017-11-23T10:57:44.981Z,99343.95
2017-11-23T11:00:10.799Z,99360.77
2017-11-23T11:02:36.617Z,99340.53
2017-11-23T11:05:02.435Z,99338.52
2017-11-23T11:07:29.116Z,99340.36
2017-11-23T11:09:54.972Z,99346.88
2017-11-23T11:12:20.778Z,99335.91
2017-11-23T11:14:46.644Z,99337.59
2017-11-23T11:17:12.450Z,99348.50
2017-11-23T11:19:38.257Z,99341.27
2017-11-23T11:22:04.446Z,99344.20
2017-11-23T11:24:30.295Z,99347.97
2017-11-23T11:26:56.135Z,99324.59
2017-11-23T11:29:21.955Z,99338.00
2017-11-23T11:31:47.771Z,99352.31
2017-11-23T11:34:13.589Z,99343.61
2017-11-23T11:36:39.419Z,99340.33
2017-11-23T11:39:05.850Z,99354.01
2017-11-23T11:41:32.632Z,99352.86
2017-11-23T11:43:59.537Z,99354.22
2017-11-23T11:46:25.709Z,99367.73
2017-11-23T11:48:51.585Z,99352.68
2017-11-23T11:51:18.186Z,99361.16
2017-11-23T11:53:44.731Z,99353.17
2017-11-23T11:56:10.893Z,99364.46
2017-11-23T11:58:36.802Z,99361.59
2017-11-23T12:01:03.629Z,99359.44
2017-11-23T12:03:30.212Z,99360.57
2017-11-23T12:05:56.073Z,99347.48
2017-11-23T12:08:23.013Z,99364.63
2017-11-23T12:10:49.570Z,99368.44
2017-11-23T12:13:15.714Z,99365.89
2017-11-23T12:18:56.912Z,99388.61
2017-11-23T12:21:25.797Z,99368.11
2017-11-23T12:23:58.311Z,99387.87
2017-11-23T12:26:24.526Z,99379.72
2017-11-23T12:29:03.973Z,99386.05
2017-11-23T12:31:30.303Z,99390.83
2017-11-23T12:33:56.170Z,99392.70
2017-11-23T12:36:23.176Z,99389.38
2017-11-23T12:38:49.662Z,99392.38
2017-11-23T12:41:18.115Z,99399.46
2017-11-23T12:43:43.999Z,99407.11
2017-11-23T12:46:10.568Z,99411.44
2017-11-23T12:48:36.548Z,99421.08
2017-11-23T12:51:03.247Z,99421.52
2017-11-23T12:53:29.271Z,99417.34
2017-11-23T12:55:56.461Z,99405.52
2017-11-23T12:58:23.008Z,99419.77
2017-11-23T13:00:49.115Z,99415.94
2017-11-23T13:03:15.863Z,99421.30
2017-11-23T13:05:42.489Z,99432.59
2017-11-23T13:08:08.621Z,99442.94
2017-11-23T13:10:35.634Z,99426.60
2017-11-23T13:13:02.319Z,99430.91
2017-11-23T13:15:28.329Z,99432.50
2017-11-23T13:17:55.631Z,99434.48
2017-11-23T13:20:21.449Z,99435.14
2017-11-23T13:22:47.290Z,99447.21
2017-11-23T13:25:13.728Z,99446.33
2017-11-23T13:27:40.441Z,99444.69
2017-11-23T13:30:07.384Z,99424.39
2017-11-23T13:32:33.259Z,99434.52
2017-11-23T13:35:00.033Z,99437.53
2017-11-23T13:37:27.051Z,99446.90
2017-11-23T13:39:53.079Z,99445.62
2017-11-23T13:42:18.910Z,99446.91
2017-11-23T13:44:45.239Z,99440.23
2017-11-23T13:47:11.679Z,99451.11
2017-11-23T13:49:38.643Z,99457.75
2017-11-23T13:52:04.564Z,99474.52
2017-11-23T13:54:30.793Z,99470.27
2017-11-23T13:56:56.681Z,99485.39
2017-11-23T13:59:23.146Z,99496.28
2017-11-23T14:01:49.422Z,99487.50
2017-11-23T14:04:15.241Z,99479.50
2017-11-23T14:06:41.165Z,99476.03
2017-11-23T14:09:07.390Z,99498.12
2017-11-23T14:11:33.241Z,99499.14
2017-11-23T14:13:59.067Z,99499.89
2017-11-23T14:16:25.600Z,99500.14
2017-11-23T14:18:58.974Z,99513.99
2017-11-23T14:21:26.084Z,99514.23
2017-11-23T14:23:52.148Z,99502.20
2017-11-23T14:26:18.579Z,99518.59
2017-11-23T14:28:45.202Z,99515.86
2017-11-23T14:31:12.251Z,99521.66
2017-11-23T14:33:39.325Z,99510.66
2017-11-23T14:36:05.817Z,99519.53
2017-11-23T14:38:32.541Z,99537.61
2017-11-23T14:41:00.017Z,99532.58
2017-11-23T14:43:25.945Z,99533.88
2017-11-23T14:45:52.652Z,99542.17
2017-11-23T14:48:18.838Z,99538.10
2017-11-23T14:50:45.246Z,99553.46
2017-11-23T14:53:11.385Z,99558.64
2017-11-23T14:55:37.209Z,99544.83
2017-11-23T14:58:03.034Z,99551.94
2017-11-23T15:00:28.873Z,99544.20
2017-11-23T15:02:54.696Z,99542.27
2017-11-23T15:05:22.194Z,99563.12
2017-11-23T15:07:48.666Z,99556.91
2017-11-23T15:10:15.389Z,99562.27
2017-11-23T15:12:41.268Z,99558.71
2017-11-23T15:15:08.149Z,99568.44
2017-11-23T15:17:33.990Z,99561.16
2017-11-23T15:19:59.790Z,99571.20
2017-11-23T15:22:25.648Z,99579.08
2017-11-23T15:24:52.653Z,99574.89
2017-11-23T15:27:18.588Z,99577.70
2017-11-23T15:29:45.252Z,99582.87
2017-11-23T15:32:11.134Z,99591.30
2017-11-23T15:34:39.500Z,99586.42
2017-11-23T15:37:05.319Z,99584.70
2017-11-23T15:39:31.262Z,99583.63
2017-11-23T15:41:58.296Z,99592.44
2017-11-23T15:44:24.165Z,99597.53
2017-11-23T15:46:49.967Z,99593.03
2017-11-23T15:49:15.813Z,99607.23
2017-11-23T15:51:41.634Z,99578.38
2017-11-23T15:54:07.593Z,99581.86
2017-11-23T15:56:34.194Z,99583.26
2017-11-23T15:59:00.015Z,99601.00
2017-11-23T16:01:25.832Z,99600.76
2017-11-23T16:03:51.661Z,99597.11
2017-11-23T16:06:17.476Z,99597.03
2017-11-23T16:08:44.622Z,99592.67
2017-11-23T16:11:10.538Z,99599.66
2017-11-23T16:13:36.696Z,99607.11
2017-11-23T16:16:03.438Z,99606.30
2017-11-23T16:18:29.265Z,99609.28
2017-11-23T16:20:55.152Z,99605.87
2017-11-23T16:23:21.410Z,99618.09
2017-11-23T16:25:47.715Z,99623.09
2017-11-23T16:28:13.801Z,99628.69
2017-11-23T16:30:39.847Z,99635.29
2017-11-23T16:33:05.670Z,99643.20
2017-11-23T16:35:32.185Z,99645.81
2017-11-23T16:37:58.081Z,99663.97
2017-11-23T16:40:39.299Z,99671.09
2017-11-23T16:43:23.266Z,99674.29
2017-11-23T16:45:55.488Z,99698.59
2017-11-23T16:48:27.812Z,99701.27
2017-11-23T16:53:59.072Z,99710.38
2017-11-23T16:56:31.590Z,99727.56
2017-11-23T17:02:06.651Z,99759.53
2017-11-23T17:04:37.376Z,99751.88
2017-11-23T17:07:12.238Z,99743.05
2017-11-23T17:09:39.085Z,99752.11
2017-11-23T17:15:13.529Z,99776.41
2017-11-23T17:20:40.448Z,99807.21
2017-11-23T17:23:06.549Z,99808.56
2017-11-23T17:25:32.639Z,99808.98
2017-11-23T17:27:58.493Z,99820.39
2017-11-23T17:30:25.521Z,99813.52
2017-11-23T17:32:52.066Z,99829.08
2017-11-23T17:35:19.015Z,99828.81
2017-11-23T17:37:45.867Z,99850.47
2017-11-23T17:40:12.520Z,99858.38
2017-11-23T17:42:38.590Z,99867.33
2017-11-23T17:45:05.511Z,99877.88
2017-11-23T17:47:31.963Z,99887.70
2017-11-23T17:49:58.889Z,99895.48
2017-11-23T17:52:24.972Z,99893.42
2017-11-23T17:54:51.406Z,99892.09
2017-11-23T17:57:17.283Z,99903.72
2017-11-23T17:59:43.741Z,99905.00
2017-11-23T18:02:09.554Z,99919.09
2017-11-23T18:04:36.010Z,99923.64
2017-11-23T18:07:02.255Z,99923.50
2017-11-23T18:09:28.726Z,99923.14
2017-11-23T18:11:55.335Z,99930.88
2017-11-23T18:14:21.510Z,99947.56
2017-11-23T18:16:47.666Z,99944.27
2017-11-23T18:19:14.483Z,99946.15
2017-11-23T18:21:40.366Z,99947.50
2017-11-23T18:24:06.915Z,99949.52
2017-11-23T18:26:33.236Z,99950.66
2017-11-23T18:28:59.444Z,99951.91
2017-11-23T18:31:25.297Z,99951.05
2017-11-23T18:33:51.150Z,99962.22
2017-11-23T18:36:17.662Z,99956.25
2017-11-23T18:38:43.990Z,99981.39
2017-11-23T18:41:10.085Z,99971.81
2017-11-23T18:43:35.885Z,99986.13
2017-11-23T18:46:02.240Z,99989.80
2017-11-23T18:48:28.265Z,100003.98
2017-11-23T18:50:54.132Z,100009.19
2017-11-23T18:53:20.195Z,100021.89
2017-11-23T18:55:46.696Z,100015.59
2017-11-23T18:58:12.721Z,100026.13
2017-11-23T19:00:38.642Z,100027.19
2017-11-23T19:03:05.366Z,100028.70
2017-11-23T19:05:31.268Z,100034.56
2017-11-23T19:07:57.771Z,100027.63
2017-11-23T19:10:23.616Z,100034.28
2017-11-23T19:12:49.449Z,100032.77
2017-11-23T19:15:15.419Z,100036.74
2017-11-23T19:17:42.104Z,100039.46
2017-11-23T19:20:08.946Z,100047.83
2017-11-23T19:22:35.686Z,100046.83
2017-11-23T19:25:02.121Z,100044.11
2017-11-23T19:27:28.024Z,100049.59
2017-11-23T19:29:53.888Z,100040.18
2017-11-23T19:32:20.223Z,100045.58
2017-11-23T19:34:46.632Z,100045.19
2017-11-23T19:37:13.268Z,100044.14
2017-11-23T19:39:40.098Z,100043.54
2017-11-23T19:42:05.979Z,100043.72
2017-11-23T19:44:32.561Z,100041.67
2017-11-23T19:46:59.169Z,100041.28
2017-11-23T19:49:26.159Z,100050.43
2017-11-23T19:51:52.469Z,100049.36
2017-11-23T19:54:18.949Z,100065.98
2017-11-23T19:56:45.643Z,100063.55
2017-11-23T19:59:12.845Z,100074.16
2017-11-23T20:01:39.445Z,100086.33
2017-11-23T20:04:05.293Z,100093.55
2017-11-23T20:06:31.094Z,100099.59
2017-11-23T20:08:57.110Z,100104.49
2017-11-23T20:11:23.709Z,100110.48
2017-11-23T20:13:50.033Z,100120.52
2017-11-23T20:16:16.181Z,100123.84
2017-11-23T20:18:42.151Z,100129.81
2017-11-23T20:21:07.966Z,100125.91
2017-11-23T20:23:34.844Z,100142.36
2017-11-23T20:26:01.880Z,100140.66
2017-11-23T20:28:28.529Z,100145.27
2017-11-23T20:30:55.394Z,100145.58
2017-11-23T20:33:22.093Z,100143.72
2017-11-23T20:35:49.174Z,100154.15
2017-11-23T20:38:16.225Z,100158.06
2017-11-23T20:40:42.103Z,100154.63
2017-11-23T20:43:08.273Z,100167.41
2017-11-23T20:45:34.803Z,100170.06
2017-11-23T20:48:01.748Z,100167.84
2017-11-23T20:50:29.410Z,100164.32
2017-11-23T20:52:56.230Z,100164.53
2017-11-23T20:55:22.049Z,100166.80
2017-11-23T20:57:50.252Z,100172.03
2017-11-23T21:00:16.368Z,100178.21
2017-11-23T21:02:43.675Z,100186.59
2017-11-23T21:05:10.361Z,100177.91
2017-11-23T21:07:37.342Z,100182.36
2017-11-23T21:10:04.888Z,100184.70
2017-11-23T21:12:30.770Z,100191.98
2017-11-23T21:14:56.618Z,100197.45
2017-11-23T21:17:23.652Z,100198.19
2017-11-23T21:19:51.500Z,100192.56
2017-11-23T21:22:18.323Z,100194.48
2017-11-23T21:24:45.753Z,100196.44
2017-11-23T21:27:12.343Z,100201.44
2017-11-23T21:29:39.658Z,100187.88
2017-11-23T21:32:06.556Z,100192.61
2017-11-23T21:34:34.305Z,100198.19
2017-11-23T21:37:00.096Z,100196.13
2017-11-23T21:39:26.563Z,100197.95
2017-11-23T21:41:52.434Z,100205.19
2017-11-23T21:44:18.793Z,100209.05
2017-11-23T21:46:45.694Z,100209.25
2017-11-23T21:49:13.111Z,100204.09
2017-11-23T21:51:40.368Z,100210.58
2017-11-23T21:54:07.377Z,100212.77
2017-11-23T21:56:34.551Z,100218.34
2017-11-23T21:59:01.508Z,100228.47
2017-11-23T22:01:28.426Z,100227.14
2017-11-23T22:03:55.601Z,100207.33
2017-11-23T22:06:22.440Z,100222.45
2017-11-23T22:08:48.623Z,100225.42
2017-11-23T22:11:14.669Z,100227.80
2017-11-23T22:13:40.670Z,100222.41
2017-11-23T22:16:07.276Z,100221.35
2017-11-23T22:18:34.696Z,100223.50
2017-11-23T22:21:01.217Z,100221.65
2017-11-23T22:23:28.027Z,100217.67
2017-11-23T22:25:54.348Z,100223.72
2017-11-23T22:28:20.650Z,100224.92
2017-11-23T22:30:46.480Z,100222.04
2017-11-23T22:33:12.277Z,100225.56
2017-11-23T22:35:38.120Z,100228.73
2017-11-23T22:38:03.941Z,100228.88
2017-11-23T22:40:29.770Z,100236.91
2017-11-23T22:42:55.756Z,100228.19
2017-11-23T22:45:21.574Z,100236.19
2017-11-23T22:47:47.372Z,100232.16
2017-11-23T22:50:13.488Z,100227.51
2017-11-23T22:52:39.259Z,100229.51
2017-11-23T22:55:05.472Z,100231.42
2017-11-23T22:57:31.292Z,100237.60
2017-11-23T22:59:57.428Z,100249.39
2017-11-23T23:02:23.531Z,100240.16
2017-11-23T23:04:49.334Z,100241.88
2017-11-23T23:07:15.153Z,100244.58
2017-11-23T23:09:41.115Z,100240.58
2017-11-23T23:12:06.941Z,100244.29
2017-11-23T23:14:32.750Z,100239.68
2017-11-23T23:16:58.704Z,100242.53
2017-11-23T23:19:24.569Z,100246.55
2017-11-23T23:21:50.599Z,100251.00
2017-11-23T23:24:16.437Z,100248.88
2017-11-23T23:26:42.444Z,100258.05
2017-11-23T23:29:08.366Z,100252.62
2017-11-23T23:31:34.205Z,100236.84
2017-11-23T23:34:00.013Z,100247.07
2017-11-23T23:36:26.122Z,100243.28
2017-11-23T23:38:52.873Z,100240.16
2017-11-23T23:41:18.701Z,100248.83
2017-11-23T23:43:44.527Z,100249.05
2017-11-23T23:46:10.386Z,100251.47
2017-11-23T23:48:36.484Z,100253.64
2017-11-23T23:51:02.339Z,100255.01
2017-11-23T23:53:28.286Z,100252.30
2017-11-23T23:55:54.097Z,100251.95
2017-11-23T23:58:19.902Z,100258.80
